Time;durP1;ratioP1;P1;durP2;ratioP2;P2;SDS_P1;SDS_P2;PMS_P1;PMS_P2;Temp;Humidity;BMP_temperature;BMP_pressure;BME280_temperature;BME280_humidity;BME280_pressure;Samples;Min_cycle;Max_cycle;Signal;HPM_P1;HPM_P2
2023/05/28 00:01:26;;;;;;;6.30;4.50;;;;;;;11.09;77.44;97002.01;106820;1281;23224;-87
2023/05/28 00:04:53;;;;;;;5.90;3.00;;;;;;;10.95;77.19;96999.92;106796;1279;138530;-87
2023/05/28 00:08:20;;;;;;;10.50;3.30;;;;;;;10.83;77.19;96998.89;106851;1275;22630;-87
2023/05/28 00:11:48;;;;;;;5.80;2.80;;;;;;;10.68;77.39;96992.50;106783;1280;22567;-86
2023/05/28 00:15:18;;;;;;;5.40;2.90;;;;;;;10.60;77.60;96994.27;106653;1276;138116;-87
2023/05/28 00:18:45;;;;;;;5.00;2.80;;;;;;;10.57;78.23;96994.39;109760;1279;22476;-87
2023/05/28 00:22:13;;;;;;;8.00;3.20;;;;;;;10.52;78.43;96988.23;106778;1273;137822;-87
2023/05/28 00:25:40;;;;;;;4.90;2.80;;;;;;;10.45;78.85;96986.24;106931;1276;22576;-87
2023/05/28 00:29:08;;;;;;;5.90;3.10;;;;;;;10.37;79.20;96979.23;109662;1279;138279;-87
2023/05/28 00:32:36;;;;;;;5.40;2.90;;;;;;;10.30;78.96;96976.27;109731;1264;22369;-87
2023/05/28 00:35:55;;;;;;;;;;;;;;;;;;;;;
2023/05/28 00:39:24;;;;;;;6.10;2.90;;;;;;;10.17;79.24;96970.08;108396;1277;138172;-86
2023/05/28 00:42:51;;;;;;;8.80;3.30;;;;;;;10.12;79.77;96965.36;106646;1277;22588;-86
2023/05/28 00:46:43;;;;;;;5.00;2.80;;;;;;;10.07;80.07;96960.98;106671;1275;138270;-86
2023/05/28 00:49:48;;;;;;;7.60;3.20;;;;;;;10.03;79.94;96958.34;106510;1283;25267;-87
2023/05/28 00:53:10;;;;;;;;;;;;;;;;;;;;;
2023/05/28 00:56:40;;;;;;;6.20;2.80;;;;;;;9.99;80.67;96955.99;109770;1264;22520;-87
2023/05/28 01:03:37;;;;;;;7.20;3.10;;;;;;;9.96;80.87;96949.77;107656;1277;138517;-87
2023/05/28 01:07:01;;;;;;;5.90;3.20;;;;;;;9.90;80.65;96945.51;106747;1277;23557;-87
2023/05/28 01:10:28;;;;;;;7.80;3.70;;;;;;;9.87;80.82;96944.67;106741;1276;137633;-86
2023/05/28 01:13:55;;;;;;;7.00;3.10;;;;;;;9.85;81.64;96940.29;106726;1276;24198;-86
2023/05/28 01:17:22;;;;;;;6.80;2.90;;;;;;;9.84;82.28;96938.38;106669;1277;138048;-86
2023/05/28 01:20:48;;;;;;;3.70;2.50;;;;;;;9.87;82.84;96938.40;106807;1277;22545;-86
2023/05/28 01:24:24;;;;;;;7.10;3.10;;;;;;;9.87;82.26;96940.51;107461;1276;24244;-87
2023/05/28 01:27:51;;;;;;;5.30;2.80;;;;;;;9.87;82.97;96937.00;109759;1276;139813;-87
2023/05/28 01:31:09;;;;;;;;;;;;;;;;;;;;;
2023/05/28 01:34:38;;;;;;;4.30;2.40;;;;;;;9.76;81.37;96933.86;109666;1280;138243;-87
2023/05/28 01:37:58;;;;;;;;;;;;;;;;;;;;;
2023/05/28 01:41:27;;;;;;;5.80;2.90;;;;;;;9.69;81.26;96931.35;109549;1264;138050;-88
2023/05/28 01:44:54;;;;;;;5.30;3.10;;;;;;;9.66;81.02;96927.98;106885;1279;24225;-86
2023/05/28 01:48:21;;;;;;;4.70;2.80;;;;;;;9.62;81.06;96926.03;106646;1280;24392;-86
2023/05/28 01:51:48;;;;;;;4.80;2.90;;;;;;;9.62;81.91;96923.83;106674;1277;138594;-87
2023/05/28 01:55:03;;;;;;;6.10;2.70;;;;;;;9.59;82.09;96920.58;106985;1276;25156;-86
2023/05/28 01:58:21;;;;;;;8.70;4.30;;;;;;;9.57;82.11;96924.75;106780;1276;136831;-87
2023/05/28 02:01:57;;;;;;;4.90;2.40;;;;;;;9.56;82.35;96922.97;106908;1276;25348;-86
2023/05/28 02:08:43;;;;;;;5.10;2.50;;;;;;;9.45;82.22;96922.46;102319;1280;5698262;-86
2023/05/28 02:12:11;;;;;;;8.50;2.90;;;;;;;9.43;82.25;96923.38;106783;1280;25281;-86
2023/05/28 02:15:36;;;;;;;5.40;2.60;;;;;;;9.36;81.49;96921.40;106766;1276;137973;-86
2023/05/28 02:19:04;;;;;;;4.70;2.30;;;;;;;9.28;81.72;96917.13;106857;1277;22541;-86
2023/05/28 02:26:01;;;;;;;5.80;3.30;;;;;;;9.24;82.29;96914.99;107073;1277;23917;-86
2023/05/28 02:29:29;;;;;;;7.60;2.80;;;;;;;9.27;82.47;96918.34;106555;1277;137700;-86
2023/05/28 02:32:56;;;;;;;5.10;2.40;;;;;;;9.34;83.67;96915.34;106751;1277;24264;-86
2023/05/28 02:36:23;;;;;;;7.00;3.20;;;;;;;9.39;83.79;96910.66;106731;1276;26751;-86
2023/05/28 02:39:50;;;;;;;5.40;3.00;;;;;;;9.42;82.86;96914.45;106913;1276;138047;-86
2023/05/28 02:43:19;;;;;;;6.90;3.00;;;;;;;9.47;82.74;96912.80;106742;1276;23165;-86
2023/05/28 02:46:46;;;;;;;4.90;2.70;;;;;;;9.50;83.04;96910.33;106733;1277;137636;-86
2023/05/28 02:50:13;;;;;;;3.20;2.60;;;;;;;9.46;83.22;96912.02;106622;1276;22534;-86
2023/05/28 02:53:40;;;;;;;6.20;2.60;;;;;;;9.43;82.90;96909.70;106659;1277;138465;-86
2023/05/28 02:57:08;;;;;;;4.70;2.60;;;;;;;9.46;82.61;96906.31;106696;1280;22585;-86
2023/05/28 03:00:34;;;;;;;6.10;2.80;;;;;;;9.53;82.93;96903.64;106745;1276;25491;-86
2023/05/28 03:04:03;;;;;;;5.70;2.60;;;;;;;9.58;83.66;96902.76;106573;1277;137855;-86
2023/05/28 03:07:31;;;;;;;5.60;2.90;;;;;;;9.64;83.71;96904.05;106649;1276;26770;-86
2023/05/28 03:10:58;;;;;;;5.90;3.40;;;;;;;9.64;83.53;96899.86;106631;1277;138076;-85
2023/05/28 03:14:25;;;;;;;4.30;2.80;;;;;;;9.65;83.88;96900.15;106887;1276;25236;-86
2023/05/28 03:17:53;;;;;;;5.40;2.70;;;;;;;9.61;83.63;96904.34;106582;1279;137629;-86
2023/05/28 03:21:20;;;;;;;3.40;2.30;;;;;;;9.52;83.14;96904.10;106768;1276;22668;-86
2023/05/28 03:24:40;;;;;;;2.90;2.20;;;;;;;9.45;83.34;96902.45;106709;1279;22579;-86
2023/05/28 03:28:07;;;;;;;7.10;2.70;;;;;;;9.39;83.55;96899.45;106614;1276;138791;-86
2023/05/28 03:31:33;;;;;;;4.70;2.50;;;;;;;9.36;83.93;96899.36;106812;1276;22644;-86
2023/05/28 03:34:53;;;;;;;3.30;2.40;;;;;;;9.31;83.98;96893.98;106691;1276;138235;-86
2023/05/28 03:38:13;;;;;;;6.20;2.60;;;;;;;9.27;84.52;96895.27;106645;1276;24059;-86
2023/05/28 03:45:07;;;;;;;4.30;2.80;;;;;;;9.21;84.78;96896.13;108081;1276;24218;-86
2023/05/28 03:48:34;;;;;;;5.00;2.90;;;;;;;9.22;85.18;96898.88;109773;1263;22438;-87
2023/05/28 03:52:01;;;;;;;6.50;2.60;;;;;;;9.23;85.27;96897.42;109507;1277;137914;-87
2023/05/28 03:55:29;;;;;;;5.90;2.60;;;;;;;9.22;85.50;96894.41;106706;1276;22792;-85
2023/05/28 03:58:38;;;;;;;5.80;3.00;;;;;;;9.20;85.69;96898.14;106467;1276;138634;-86
2023/05/28 04:02:04;;;;;;;5.40;3.10;;;;;;;9.20;85.80;96899.21;106805;1277;25489;-86
2023/05/28 04:05:33;;;;;;;4.70;2.80;;;;;;;9.18;85.81;96896.14;106747;1262;137679;-87
2023/05/28 04:08:50;;;;;;;5.40;2.70;;;;;;;9.17;86.37;96893.99;106647;1284;22651;-86
2023/05/28 04:12:15;;;;;;;;;;;;;;;;;;;;;
2023/05/28 04:15:44;;;;;;;3.50;2.40;;;;;;;9.20;87.23;96889.85;109753;1267;22162;-86
2023/05/28 04:19:11;;;;;;;5.20;3.10;;;;;;;9.23;87.64;96896.27;106754;1276;22548;-86
2023/05/28 04:22:31;;;;;;;5.40;3.00;;;;;;;9.22;87.60;96898.73;106730;1279;138741;-86
2023/05/28 04:25:59;;;;;;;4.30;2.80;;;;;;;9.22;88.02;96901.94;106733;1275;22577;-87
2023/05/28 04:29:18;;;;;;;6.30;2.70;;;;;;;9.23;88.15;96894.54;107287;1276;138346;-86
2023/05/28 04:32:48;;;;;;;6.20;3.20;;;;;;;9.21;88.67;96889.88;106863;1279;22608;-86
2023/05/28 04:36:37;;;;;;;5.80;3.10;;;;;;;9.23;88.82;96889.20;108312;1276;139023;-86
2023/05/28 04:39:40;;;;;;;6.80;3.00;;;;;;;9.25;88.90;96887.38;106639;1277;22528;-87
2023/05/28 04:43:08;;;;;;;5.20;2.90;;;;;;;9.27;89.15;96884.61;106790;1267;22842;-86
2023/05/28 04:46:36;;;;;;;4.10;2.90;;;;;;;9.30;89.73;96884.74;106699;1277;137876;-86
2023/05/28 04:53:29;;;;;;;6.50;3.10;;;;;;;9.37;90.43;96888.05;109651;1277;138713;-87
2023/05/28 04:56:49;;;;;;;6.10;3.00;;;;;;;9.43;91.11;96879.59;107007;1276;22537;-86
2023/05/28 05:00:15;;;;;;;6.20;3.40;;;;;;;9.48;91.13;96880.98;109124;1276;137529;-86
2023/05/28 05:03:43;;;;;;;4.90;3.10;;;;;;;9.52;91.02;96881.37;106863;1276;22539;-87
2023/05/28 05:07:03;;;;;;;4.50;2.70;;;;;;;9.61;91.45;96884.94;106721;1281;22783;-86
2023/05/28 05:10:23;;;;;;;6.40;3.10;;;;;;;9.66;91.62;96882.38;106840;1276;137917;-86
2023/05/28 05:13:50;;;;;;;5.80;3.00;;;;;;;9.69;92.18;96882.73;106830;1283;22612;-86
2023/05/28 05:17:18;;;;;;;4.40;3.00;;;;;;;9.74;92.29;96887.17;106700;1276;137667;-86
2023/05/28 05:20:45;;;;;;;4.40;2.90;;;;;;;9.80;92.16;96886.67;106981;1280;23178;-86
2023/05/28 05:24:13;;;;;;;4.70;2.90;;;;;;;9.89;93.16;96893.81;106703;1283;138465;-86
2023/05/28 05:27:40;;;;;;;4.70;2.80;;;;;;;9.97;93.27;96900.31;106827;1281;23899;-86
2023/05/28 05:31:06;;;;;;;6.40;4.00;;;;;;;10.03;93.57;96901.67;106824;1276;22565;-86
2023/05/28 05:34:32;;;;;;;6.60;3.50;;;;;;;10.08;93.69;96901.29;106797;1276;138876;-86
2023/05/28 05:37:59;;;;;;;5.80;3.40;;;;;;;10.16;93.64;96894.46;106931;1276;22523;-86
2023/05/28 05:41:26;;;;;;;5.50;3.00;;;;;;;10.21;94.08;96894.73;106600;1276;137819;-86
2023/05/28 05:44:54;;;;;;;7.50;4.40;;;;;;;10.28;93.04;96893.74;106849;1276;25318;-87
2023/05/28 05:48:21;;;;;;;6.40;3.90;;;;;;;10.35;93.27;96892.02;106693;1280;138082;-87
2023/05/28 05:51:42;;;;;;;;;;;;;;;;;;;;;
2023/05/28 05:55:03;;;;;;;8.30;4.90;;;;;;;10.49;93.25;96890.88;106953;1275;26614;-86
2023/05/28 05:58:32;;;;;;;9.50;5.40;;;;;;;10.58;92.66;96889.02;106844;1271;138107;-86
2023/05/28 06:05:27;;;;;;;8.60;6.20;;;;;;;10.72;91.00;96890.57;109637;1277;139134;-87
2023/05/28 06:08:54;;;;;;;14.30;6.20;;;;;;;10.81;89.96;96888.84;106739;1279;22592;-86
2023/05/28 06:12:22;;;;;;;9.60;6.00;;;;;;;10.91;90.19;96886.90;106612;1260;138234;-86
2023/05/28 06:15:49;;;;;;;10.90;5.40;;;;;;;10.98;90.56;96884.69;106739;1276;22771;-86
2023/05/28 06:19:16;;;;;;;7.60;5.00;;;;;;;11.06;89.77;96887.92;109770;1261;23317;-87
2023/05/28 06:22:43;;;;;;;10.60;5.70;;;;;;;11.14;89.09;96885.17;106686;1276;138882;-86
2023/05/28 06:26:12;;;;;;;9.10;5.90;;;;;;;11.23;89.93;96884.98;106714;1276;22535;-86
2023/05/28 06:29:38;;;;;;;9.10;4.80;;;;;;;11.30;88.12;96884.73;106537;1276;137908;-86
2023/05/28 06:33:06;;;;;;;9.30;5.90;;;;;;;11.37;87.17;96888.55;106770;1276;25519;-86
2023/05/28 06:36:35;;;;;;;8.60;5.20;;;;;;;11.47;86.67;96890.98;106570;1276;137915;-86
2023/05/28 06:39:54;;;;;;;7.30;5.20;;;;;;;11.56;86.69;96888.52;106685;1278;22609;-86
2023/05/28 06:43:21;;;;;;;7.50;5.10;;;;;;;11.64;86.83;96886.71;106776;1277;25295;-85
2023/05/28 06:46:48;;;;;;;9.70;5.50;;;;;;;11.73;86.39;96887.27;106571;1277;139362;-85
2023/05/28 06:50:16;;;;;;;7.50;5.60;;;;;;;11.81;86.28;96883.20;106706;1281;24399;-85
2023/05/28 06:53:43;;;;;;;9.50;5.50;;;;;;;11.89;86.09;96883.73;106585;1280;137879;-86
2023/05/28 06:57:11;;;;;;;10.30;6.40;;;;;;;11.96;85.86;96881.30;109714;1267;22173;-86
2023/05/28 07:00:38;;;;;;;9.60;5.80;;;;;;;12.03;85.40;96878.56;106597;1276;138035;-85
2023/05/28 07:04:05;;;;;;;10.10;5.50;;;;;;;12.12;85.36;96871.16;106688;1272;23915;-85
2023/05/28 07:07:33;;;;;;;6.80;5.00;;;;;;;12.19;85.85;96865.30;106704;1276;24238;-86
2023/05/28 07:11:00;;;;;;;7.10;4.80;;;;;;;12.26;85.58;96863.42;106565;1276;138482;-86
2023/05/28 07:14:12;;;;;;;8.10;5.50;;;;;;;12.33;85.55;96864.58;106828;1275;22738;-86
2023/05/28 07:17:39;;;;;;;6.90;5.20;;;;;;;12.40;86.74;96863.17;106772;1277;138613;-86
2023/05/28 07:21:07;;;;;;;8.20;5.30;;;;;;;12.43;85.20;96864.96;106821;1276;24203;-86
2023/05/28 07:24:34;;;;;;;8.90;5.40;;;;;;;12.49;85.27;96860.06;106676;1276;137971;-86
2023/05/28 07:28:02;;;;;;;7.20;4.70;;;;;;;12.57;84.82;96860.96;106707;1280;22614;-87
2023/05/28 07:31:31;;;;;;;7.20;5.10;;;;;;;12.62;84.57;96861.18;106854;1276;22677;-87
2023/05/28 07:34:56;;;;;;;8.50;5.50;;;;;;;12.69;83.97;96858.86;106834;1276;138098;-86
2023/05/28 07:38:23;;;;;;;10.10;6.30;;;;;;;12.75;83.40;96857.96;106736;1276;22562;-86
2023/05/28 07:41:50;;;;;;;8.00;5.30;;;;;;;12.82;84.01;96858.64;106777;1276;138189;-86
2023/05/28 07:45:18;;;;;;;8.60;5.00;;;;;;;12.88;83.31;96857.29;106696;1277;24177;-85
2023/05/28 07:48:45;;;;;;;9.70;4.90;;;;;;;12.97;83.22;96857.67;106695;1276;138324;-87
2023/05/28 07:52:13;;;;;;;8.60;5.40;;;;;;;13.04;83.39;96855.64;106706;1276;22563;-87
2023/05/28 07:55:40;;;;;;;6.70;4.60;;;;;;;13.10;83.38;96854.33;106765;1276;24390;-86
2023/05/28 07:59:07;;;;;;;8.90;5.40;;;;;;;13.17;82.32;96853.15;106703;1283;138908;-86
2023/05/28 08:02:35;;;;;;;9.50;5.00;;;;;;;13.24;82.35;96854.58;106689;1276;22675;-86
2023/05/28 08:09:18;;;;;;;8.60;6.30;;;;;;;13.40;82.89;96846.05;107474;1277;22557;-89
2023/05/28 08:15:22;;;;;;;7.50;4.50;;;;;;;13.52;82.20;96841.02;108553;1276;22621;-89
2023/05/28 08:18:49;;;;;;;9.90;4.80;;;;;;;13.59;81.80;96837.89;106734;1282;138085;-85
2023/05/28 08:22:16;;;;;;;7.90;4.20;;;;;;;13.68;80.60;96840.10;106842;1274;25401;-85
2023/05/28 08:25:44;;;;;;;7.10;4.30;;;;;;;13.76;80.78;96839.30;106825;1282;22626;-85
2023/05/28 08:29:11;;;;;;;7.80;4.30;;;;;;;13.84;80.88;96841.48;106639;1280;138896;-86
2023/05/28 08:32:38;;;;;;;9.10;5.60;;;;;;;13.92;81.21;96843.30;106842;1283;22639;-86
2023/05/28 08:36:06;;;;;;;7.20;4.90;;;;;;;14.00;80.42;96841.39;106625;1282;137795;-86
2023/05/28 08:39:32;;;;;;;12.00;4.90;;;;;;;14.06;79.25;96843.19;106793;1275;22607;-86
2023/05/28 08:43:00;;;;;;;6.20;4.50;;;;;;;14.16;79.86;96846.71;106669;1282;138110;-85
2023/05/28 08:46:27;;;;;;;7.50;4.60;;;;;;;14.27;78.67;96846.67;106735;1283;23149;-86
2023/05/28 08:49:55;;;;;;;8.20;4.30;;;;;;;14.36;77.31;96843.40;106691;1283;22595;-86
2023/05/28 08:53:22;;;;;;;7.40;4.20;;;;;;;14.45;78.46;96842.79;106607;1283;138652;-86
2023/05/28 08:56:49;;;;;;;6.00;4.10;;;;;;;14.53;78.79;96842.50;106731;1283;22538;-85
2023/05/28 09:00:16;;;;;;;5.90;3.80;;;;;;;14.59;77.13;96836.96;106672;1283;137889;-86
2023/05/28 09:03:42;;;;;;;6.80;3.80;;;;;;;14.65;77.37;96835.16;106712;1282;25411;-85
2023/05/28 09:07:10;;;;;;;5.30;3.60;;;;;;;14.71;76.54;96828.44;106776;1280;22527;-86
2023/05/28 09:10:37;;;;;;;5.70;3.80;;;;;;;14.80;75.14;96828.98;106664;1283;22646;-86
2023/05/28 09:14:04;;;;;;;6.70;3.80;;;;;;;14.91;76.48;96829.98;106674;1283;24079;-86
2023/05/28 09:17:32;;;;;;;5.60;3.80;;;;;;;15.01;75.64;96824.41;106470;1277;138008;-86
2023/05/28 09:20:59;;;;;;;5.10;3.30;;;;;;;15.11;74.70;96820.16;106742;1276;23160;-86
2023/05/28 09:24:26;;;;;;;6.70;3.30;;;;;;;15.25;72.55;96822.14;106428;1283;138203;-86
2023/05/28 09:27:56;;;;;;;5.20;3.00;;;;;;;15.33;72.46;96819.11;106655;1280;22547;-86
2023/05/28 09:31:24;;;;;;;5.10;3.30;;;;;;;15.43;74.02;96813.70;106688;1280;22831;-86
2023/05/28 09:34:51;;;;;;;6.70;3.80;;;;;;;15.50;73.73;96808.84;106518;1283;25290;-86
2023/05/28 09:38:18;;;;;;;4.10;3.00;;;;;;;15.55;72.17;96805.40;106746;1282;22531;-86
2023/05/28 09:41:45;;;;;;;6.10;3.40;;;;;;;15.64;72.90;96804.46;106645;1283;138581;-86
2023/05/28 09:45:12;;;;;;;6.20;3.20;;;;;;;15.73;70.43;96806.77;106691;1276;24307;-85
2023/05/28 09:48:43;;;;;;;4.50;3.20;;;;;;;15.81;71.29;96804.52;106644;1283;137440;-85
2023/05/28 09:52:11;;;;;;;5.60;3.30;;;;;;;15.96;71.88;96803.08;109815;1277;23000;-87
2023/05/28 09:55:38;;;;;;;5.60;3.30;;;;;;;16.06;72.88;96804.46;106376;1284;24251;-85
2023/05/28 09:59:06;;;;;;;6.50;3.30;;;;;;;16.14;69.40;96804.58;106427;1277;138588;-86
2023/05/28 10:02:42;;;;;;;5.30;3.50;;;;;;;16.22;69.43;96802.36;106613;1284;25402;-84
2023/05/28 10:06:11;;;;;;;6.50;4.10;;;;;;;16.29;69.81;96805.45;106510;1284;138067;-86
2023/05/28 10:09:37;;;;;;;4.80;2.80;;;;;;;16.38;70.80;96804.48;106545;1283;25334;-86
2023/05/28 10:13:09;;;;;;;6.00;3.50;;;;;;;16.45;68.75;96799.02;106435;1283;137586;-86
2023/05/28 10:16:34;;;;;;;6.50;3.10;;;;;;;16.54;68.96;96800.06;106652;1284;24374;-86
2023/05/28 10:20:04;;;;;;;6.40;2.90;;;;;;;16.62;68.75;96800.23;106553;1284;24310;-86
2023/05/28 10:23:29;;;;;;;3.50;2.50;;;;;;;16.65;67.74;96795.05;106489;1284;137637;-86
2023/05/28 10:26:57;;;;;;;6.40;2.90;;;;;;;16.76;68.53;96792.68;106617;1284;22652;-86
2023/05/28 10:30:24;;;;;;;5.20;3.20;;;;;;;16.91;68.61;96791.23;106431;1276;137624;-86
2023/05/28 10:33:57;;;;;;;3.70;2.80;;;;;;;16.99;68.17;96792.84;106347;1278;22583;-86
2023/05/28 10:37:30;;;;;;;6.00;2.70;;;;;;;17.03;67.25;96792.19;106460;1284;138348;-86
2023/05/28 10:41:03;;;;;;;5.10;2.70;;;;;;;17.11;64.99;96788.56;106519;1281;25413;-86
2023/05/28 10:44:19;;;;;;;;;;;;;;;17.13;65.51;96785.67;106500;1277;23327;-87
2023/05/28 10:47:46;;;;;;;3.60;2.30;;;;;;;17.20;65.39;96784.69;106634;1277;124332;-86
2023/05/28 10:51:13;;;;;;;3.00;1.90;;;;;;;17.21;64.64;96787.50;106540;1284;24446;-86
2023/05/28 10:55:05;;;;;;;6.40;2.50;;;;;;;17.25;64.43;96787.12;106527;1283;137322;-87
2023/05/28 10:58:26;;;;;;;4.30;2.30;;;;;;;17.30;64.30;96785.34;106550;1276;22533;-86
2023/05/28 11:01:53;;;;;;;4.40;2.50;;;;;;;17.35;63.63;96786.95;106377;1283;25312;-86
2023/05/28 11:05:42;;;;;;;3.70;2.50;;;;;;;17.39;63.51;96786.02;106504;1283;137832;-86
2023/05/28 11:08:51;;;;;;;4.20;2.50;;;;;;;17.47;62.92;96789.21;106542;1283;23346;-86
2023/05/28 11:12:17;;;;;;;3.60;2.20;;;;;;;17.54;62.74;96784.61;106556;1283;137177;-85
2023/05/28 11:15:45;;;;;;;5.90;2.40;;;;;;;17.63;62.36;96781.48;106656;1280;23032;-86
2023/05/28 11:19:12;;;;;;;5.00;2.90;;;;;;;17.65;62.98;96782.98;106494;1283;137693;-86
2023/05/28 11:22:51;;;;;;;3.80;2.10;;;;;;;17.70;61.96;96776.90;106614;1283;22587;-86
2023/05/28 11:26:19;;;;;;;5.20;2.50;;;;;;;17.82;65.17;96778.13;106618;1283;23902;-86
2023/05/28 11:29:46;;;;;;;3.70;2.40;;;;;;;17.84;60.78;96774.73;106662;1276;137992;-86
2023/05/28 11:33:14;;;;;;;5.60;2.30;;;;;;;17.92;62.68;96777.55;106621;1282;25419;-86
2023/05/28 11:36:41;;;;;;;5.50;2.70;;;;;;;17.91;61.08;96775.70;106483;1277;137546;-85
2023/05/28 11:40:33;;;;;;;2.80;1.90;;;;;;;17.96;60.98;96770.83;106561;1277;25393;-86
2023/05/28 11:43:35;;;;;;;3.80;2.10;;;;;;;18.05;61.78;96769.23;106502;1276;137733;-86
2023/05/28 11:47:03;;;;;;;4.50;2.50;;;;;;;18.12;61.52;96765.36;106581;1283;22608;-86
2023/05/28 11:50:30;;;;;;;3.80;2.10;;;;;;;18.21;62.40;96764.80;106636;1276;22538;-86
2023/05/28 11:53:58;;;;;;;4.50;2.00;;;;;;;18.30;61.33;96768.01;106610;1276;137756;-84
2023/05/28 11:57:25;;;;;;;6.40;2.20;;;;;;;18.39;61.64;96767.09;106664;1278;22630;-83
2023/05/28 12:01:02;;;;;;;3.70;2.30;;;;;;;18.49;61.03;96764.54;106286;1283;137396;-83
2023/05/28 12:04:29;;;;;;;4.60;2.10;;;;;;;18.62;61.32;96763.26;106417;1283;24753;-86
2023/05/28 12:07:56;;;;;;;7.50;2.90;;;;;;;18.71;60.81;96760.72;106671;1283;25408;-85
2023/05/28 12:11:23;;;;;;;3.30;2.10;;;;;;;18.74;60.47;96759.71;106787;1280;22565;-85
2023/05/28 12:14:50;;;;;;;5.70;2.40;;;;;;;18.77;58.55;96759.67;106656;1283;22552;-86
2023/05/28 12:18:18;;;;;;;5.60;2.40;;;;;;;18.73;58.58;96756.33;106588;1283;138389;-86
2023/05/28 12:21:45;;;;;;;4.30;2.30;;;;;;;18.75;58.27;96754.79;106625;1283;22527;-86
2023/05/28 12:25:15;;;;;;;3.20;2.20;;;;;;;18.79;58.88;96757.15;106521;1283;136512;-86
2023/05/28 12:28:42;;;;;;;3.10;2.10;;;;;;;18.85;60.27;96757.23;106691;1276;25368;-86
2023/05/28 12:32:09;;;;;;;3.50;2.50;;;;;;;18.92;59.17;96757.52;106679;1277;22651;-85
2023/05/28 12:35:36;;;;;;;3.10;1.80;;;;;;;18.98;59.45;96760.85;106727;1276;22526;-85
2023/05/28 12:39:04;;;;;;;5.50;2.40;;;;;;;19.02;59.91;96763.30;106673;1277;22535;-86
2023/05/28 12:42:31;;;;;;;6.80;3.10;;;;;;;19.05;57.66;96761.17;106606;1283;137523;-85
2023/05/28 12:45:59;;;;;;;6.90;4.00;;;;;;;19.09;57.57;96759.84;106682;1283;24363;-86
2023/05/28 12:49:26;;;;;;;13.80;12.40;;;;;;;19.12;57.78;96754.33;106509;1276;137299;-86
2023/05/28 12:52:53;;;;;;;18.90;15.00;;;;;;;19.14;55.60;96752.86;106557;1283;25468;-87
2023/05/28 12:56:21;;;;;;;16.00;14.30;;;;;;;19.16;57.82;96750.73;106660;1276;22610;-86
2023/05/28 12:59:48;;;;;;;7.20;4.50;;;;;;;19.23;57.58;96750.32;106681;1283;23910;-86
2023/05/28 13:03:16;;;;;;;3.30;2.40;;;;;;;19.23;56.05;96750.64;106611;1276;24237;-86
2023/05/28 13:06:43;;;;;;;5.30;3.90;;;;;;;19.26;56.60;96746.82;106561;1283;137609;-86
2023/05/28 13:10:10;;;;;;;5.70;4.50;;;;;;;19.33;56.62;96741.23;106593;1283;24247;-86
2023/05/28 13:13:38;;;;;;;4.40;3.20;;;;;;;19.39;59.43;96738.98;106572;1276;137651;-86
2023/05/28 13:17:05;;;;;;;5.20;3.00;;;;;;;19.41;56.04;96733.11;106656;1283;22819;-85
2023/05/28 13:20:32;;;;;;;6.40;2.70;;;;;;;19.40;57.40;96733.50;106587;1283;24232;-86
2023/05/28 13:24:00;;;;;;;4.50;2.70;;;;;;;19.43;57.08;96733.56;106709;1280;26511;-86
2023/05/28 13:27:27;;;;;;;6.00;2.60;;;;;;;19.43;56.36;96729.95;106585;1283;25404;-86
2023/05/28 13:30:54;;;;;;;4.80;2.60;;;;;;;19.46;58.18;96732.36;106516;1261;137292;-85
2023/05/28 13:34:22;;;;;;;4.60;2.30;;;;;;;19.51;56.73;96729.27;106655;1283;24244;-86
2023/05/28 13:37:49;;;;;;;6.60;3.40;;;;;;;19.53;57.20;96729.79;106569;1283;137246;-85
2023/05/28 13:41:17;;;;;;;5.40;2.70;;;;;;;19.58;59.49;96726.84;106622;1276;22531;-85
2023/05/28 13:44:43;;;;;;;5.20;3.30;;;;;;;19.54;56.00;96716.23;106679;1284;24228;-85
2023/05/28 13:48:11;;;;;;;3.20;2.40;;;;;;;19.46;57.09;96714.73;106574;1283;138135;-86
2023/05/28 13:51:41;;;;;;;6.40;2.70;;;;;;;19.44;56.26;96716.88;106671;1276;22787;-85
2023/05/28 13:55:05;;;;;;;2.90;2.20;;;;;;;19.41;55.19;96714.09;106565;1278;137381;-86
2023/05/28 13:58:42;;;;;;;3.90;2.80;;;;;;;19.50;56.53;96711.30;106477;1283;22714;-86
2023/05/28 14:02:09;;;;;;;3.80;2.30;;;;;;;19.60;57.71;96710.38;106602;1283;137984;-86
2023/05/28 14:05:37;;;;;;;5.50;2.60;;;;;;;19.62;56.30;96710.10;106586;1283;24104;-85
2023/05/28 14:09:05;;;;;;;6.10;4.40;;;;;;;19.63;56.08;96706.84;102639;1276;5380517;-85
2023/05/28 14:12:31;;;;;;;9.80;7.70;;;;;;;19.60;55.53;96702.55;106601;1277;137658;-85
2023/05/28 14:15:58;;;;;;;12.40;9.90;;;;;;;19.63;55.95;96704.05;106683;1277;25604;-86
2023/05/28 14:19:26;;;;;;;7.70;3.90;;;;;;;19.66;56.02;96701.41;106534;1277;137757;-85
2023/05/28 14:22:53;;;;;;;3.90;3.10;;;;;;;19.69;56.36;96698.42;106633;1283;22549;-86
2023/05/28 14:26:20;;;;;;;6.40;2.50;;;;;;;19.67;55.22;96699.13;106501;1283;137266;-85
2023/05/28 14:29:39;;;;;;;;;;;;;;;;;;;;;
2023/05/28 14:33:09;;;;;;;3.80;2.60;;;;;;;19.71;56.81;96689.36;106624;1277;22510;-85
2023/05/28 14:36:38;;;;;;;7.00;3.20;;;;;;;19.71;55.31;96685.32;106473;1283;138294;-86
2023/05/28 14:40:04;;;;;;;6.00;3.10;;;;;;;19.77;55.97;96681.79;106606;1284;22645;-86
2023/05/28 14:43:30;;;;;;;4.00;2.60;;;;;;;19.80;55.52;96676.98;106679;1276;137110;-86
2023/05/28 14:46:58;;;;;;;4.60;2.60;;;;;;;19.82;55.23;96676.70;106631;1283;22543;-86
2023/05/28 14:50:25;;;;;;;5.60;2.70;;;;;;;19.85;55.00;96679.30;106516;1282;137366;-85
2023/05/28 14:53:54;;;;;;;4.50;2.80;;;;;;;19.92;55.95;96675.19;106607;1283;25993;-85
2023/05/28 14:57:21;;;;;;;4.20;2.50;;;;;;;19.92;54.19;96675.07;106755;1283;24212;-85
2023/05/28 15:00:48;;;;;;;3.80;2.40;;;;;;;19.90;54.87;96680.98;106553;1280;138228;-86
2023/05/28 15:04:15;;;;;;;3.30;2.30;;;;;;;19.87;53.48;96679.50;106590;1283;24373;-86
2023/05/28 15:07:42;;;;;;;4.80;2.30;;;;;;;19.76;53.32;96680.98;106541;1283;137597;-85
2023/05/28 15:11:10;;;;;;;6.40;3.10;;;;;;;19.74;53.81;96676.40;106636;1283;22536;-85
2023/05/28 15:14:37;;;;;;;3.80;2.10;;;;;;;19.69;55.18;96678.83;106582;1283;137384;-85
2023/05/28 15:18:04;;;;;;;3.90;2.70;;;;;;;19.62;54.26;96681.42;106704;1278;22793;-85
2023/05/28 15:21:31;;;;;;;4.30;2.20;;;;;;;19.61;53.85;96678.23;106652;1283;25260;-85
2023/05/28 15:24:59;;;;;;;4.20;2.50;;;;;;;19.64;54.61;96675.96;106690;1276;138181;-85
2023/05/28 15:28:26;;;;;;;5.30;2.50;;;;;;;19.62;52.56;96676.98;106708;1283;22734;-85
2023/05/28 15:31:53;;;;;;;4.20;2.20;;;;;;;19.61;54.25;96675.90;106552;1278;137240;-85
2023/05/28 15:35:21;;;;;;;6.00;2.30;;;;;;;19.59;53.91;96675.94;106687;1283;24751;-85
2023/05/28 15:38:48;;;;;;;3.30;2.10;;;;;;;19.51;54.03;96674.45;106476;1283;137283;-85
2023/05/28 15:42:16;;;;;;;3.60;2.30;;;;;;;19.46;52.79;96673.86;106616;1283;26529;-85
2023/05/28 15:45:43;;;;;;;3.80;2.60;;;;;;;19.41;52.37;96672.34;106641;1283;22997;-85
2023/05/28 15:49:10;;;;;;;6.10;3.00;;;;;;;19.38;53.65;96672.55;106537;1283;137550;-85
2023/05/28 15:52:38;;;;;;;4.40;2.40;;;;;;;19.40;53.47;96672.33;106649;1283;23930;-85
2023/05/28 15:56:07;;;;;;;4.80;2.60;;;;;;;19.40;53.94;96670.85;106572;1283;138707;-85
2023/05/28 15:59:34;;;;;;;3.60;2.70;;;;;;;19.36;53.15;96666.63;106611;1276;22573;-85
2023/05/28 16:03:02;;;;;;;8.80;3.10;;;;;;;19.33;53.93;96665.25;106647;1281;22536;-86
2023/05/28 16:06:29;;;;;;;4.10;3.00;;;;;;;19.35;55.65;96665.66;106620;1283;22542;-85
2023/05/28 16:09:56;;;;;;;3.50;2.90;;;;;;;19.32;54.88;96664.30;106640;1276;23117;-85
2023/05/28 16:13:24;;;;;;;6.10;2.70;;;;;;;19.24;54.15;96661.91;106540;1283;137345;-85
2023/05/28 16:16:51;;;;;;;4.20;3.00;;;;;;;19.14;53.87;96666.93;106635;1278;25416;-85
2023/05/28 16:20:18;;;;;;;5.40;3.40;;;;;;;19.07;53.80;96664.95;106517;1283;137549;-85
2023/05/28 16:23:46;;;;;;;4.90;2.70;;;;;;;19.04;54.76;96661.76;106663;1283;24251;-85
2023/05/28 16:27:13;;;;;;;5.40;3.50;;;;;;;18.97;54.10;96666.37;106673;1283;22524;-85
2023/05/28 16:30:41;;;;;;;4.20;2.80;;;;;;;18.89;55.39;96664.05;106585;1278;24265;-86
2023/05/28 16:34:08;;;;;;;3.80;2.30;;;;;;;18.87;55.30;96661.38;106640;1278;22649;-85
2023/05/28 16:37:36;;;;;;;3.80;2.90;;;;;;;18.87;55.13;96664.77;106534;1283;137637;-86